sensor_id;sensor_type;location;lat;lon;timestamp;pressure;altitude;pressure_sealevel;temperature;humidity
79686;BME280;69153;47.918;11.428;2023-12-20T00:00:54;95156.50;;;8.17;42.52
79686;BME280;69153;47.918;11.428;2023-12-20T00:03:19;95152.94;;;8.04;42.54
79686;BME280;69153;47.918;11.428;2023-12-20T00:05:45;95158.50;;;7.82;43.19
79686;BME280;69153;47.918;11.428;2023-12-20T00:08:12;95157.72;;;7.85;43.45
79686;BME280;69153;47.918;11.428;2023-12-20T00:10:37;95151.69;;;7.85;43.90
79686;BME280;69153;47.918;11.428;2023-12-20T00:13:03;95148.03;;;7.79;44.20
79686;BME280;69153;47.918;11.428;2023-12-20T00:15:28;95137.91;;;8.01;43.51
79686;BME280;69153;47.918;11.428;2023-12-20T00:17:54;95138.13;;;8.10;43.39
79686;BME280;69153;47.918;11.428;2023-12-20T00:20:19;95134.47;;;8.27;43.19
79686;BME280;69153;47.918;11.428;2023-12-20T00:22:45;95136.50;;;8.43;43.18
79686;BME280;69153;47.918;11.428;2023-12-20T00:25:10;95134.81;;;8.52;42.73
79686;BME280;69153;47.918;11.428;2023-12-20T00:27:36;95131.84;;;8.50;43.29
79686;BME280;69153;47.918;11.428;2023-12-20T00:30:01;95124.84;;;8.40;43.64
79686;BME280;69153;47.918;11.428;2023-12-20T00:32:26;95128.53;;;8.19;44.53
79686;BME280;69153;47.918;11.428;2023-12-20T00:34:52;95118.50;;;7.61;46.09
79686;BME280;69153;47.918;11.428;2023-12-20T00:37:17;95114.50;;;7.22;47.43
79686;BME280;69153;47.918;11.428;2023-12-20T00:39:43;95115.38;;;7.12;47.51
79686;BME280;69153;47.918;11.428;2023-12-20T00:42:09;95123.75;;;7.34;47.24
79686;BME280;69153;47.918;11.428;2023-12-20T00:44:34;95121.88;;;7.61;47.15
79686;BME280;69153;47.918;11.428;2023-12-20T00:46:59;95114.97;;;7.71;46.70
79686;BME280;69153;47.918;11.428;2023-12-20T00:49:26;95120.47;;;7.53;46.99
79686;BME280;69153;47.918;11.428;2023-12-20T00:51:51;95108.50;;;7.75;46.49
79686;BME280;69153;47.918;11.428;2023-12-20T00:54:18;95109.31;;;7.96;46.30
79686;BME280;69153;47.918;11.428;2023-12-20T00:56:43;95103.94;;;8.03;46.06
79686;BME280;69153;47.918;11.428;2023-12-20T00:59:09;95094.94;;;8.00;45.54
79686;BME280;69153;47.918;11.428;2023-12-20T01:01:34;95094.19;;;8.00;45.94
79686;BME280;69153;47.918;11.428;2023-12-20T01:04:00;95091.50;;;8.03;45.96
79686;BME280;69153;47.918;11.428;2023-12-20T01:06:25;95082.84;;;8.03;46.45
79686;BME280;69153;47.918;11.428;2023-12-20T01:08:50;95093.38;;;8.03;45.57
79686;BME280;69153;47.918;11.428;2023-12-20T01:11:16;95088.00;;;7.86;46.25
79686;BME280;69153;47.918;11.428;2023-12-20T01:13:42;95081.66;;;7.80;46.22
79686;BME280;69153;47.918;11.428;2023-12-20T01:16:10;95092.91;;;7.84;46.39
79686;BME280;69153;47.918;11.428;2023-12-20T01:18:36;95079.03;;;7.80;46.44
79686;BME280;69153;47.918;11.428;2023-12-20T01:21:02;95084.31;;;7.80;46.72
79686;BME280;69153;47.918;11.428;2023-12-20T01:23:28;95075.53;;;7.87;46.39
79686;BME280;69153;47.918;11.428;2023-12-20T01:25:54;95072.84;;;7.91;46.70
79686;BME280;69153;47.918;11.428;2023-12-20T01:28:20;95073.94;;;7.93;46.42
79686;BME280;69153;47.918;11.428;2023-12-20T01:30:45;95074.84;;;7.83;46.54
79686;BME280;69153;47.918;11.428;2023-12-20T01:33:11;95066.00;;;7.70;47.16
79686;BME280;69153;47.918;11.428;2023-12-20T01:35:36;95074.28;;;7.72;47.01
79686;BME280;69153;47.918;11.428;2023-12-20T01:38:02;95073.13;;;7.73;47.69
79686;BME280;69153;47.918;11.428;2023-12-20T01:40:28;95075.00;;;7.72;48.06
79686;BME280;69153;47.918;11.428;2023-12-20T01:43:00;95071.28;;;7.70;48.34
79686;BME280;69153;47.918;11.428;2023-12-20T01:45:26;95061.22;;;7.65;48.70
79686;BME280;69153;47.918;11.428;2023-12-20T01:47:53;95071.03;;;7.61;47.72
79686;BME280;69153;47.918;11.428;2023-12-20T01:50:18;95061.47;;;7.47;48.39
79686;BME280;69153;47.918;11.428;2023-12-20T01:52:45;95053.78;;;7.02;48.80
79686;BME280;69153;47.918;11.428;2023-12-20T01:55:11;95052.56;;;7.10;48.40
79686;BME280;69153;47.918;11.428;2023-12-20T01:57:41;95051.97;;;6.96;49.17
79686;BME280;69153;47.918;11.428;2023-12-20T02:00:09;95040.72;;;7.22;48.34
79686;BME280;69153;47.918;11.428;2023-12-20T02:02:39;95035.06;;;7.24;48.02
79686;BME280;69153;47.918;11.428;2023-12-20T02:05:08;95025.84;;;7.08;48.37
79686;BME280;69153;47.918;11.428;2023-12-20T02:07:34;95026.75;;;6.98;48.50
79686;BME280;69153;47.918;11.428;2023-12-20T02:10:01;95018.13;;;6.64;49.08
79686;BME280;69153;47.918;11.428;2023-12-20T02:12:26;95026.41;;;6.96;48.63
79686;BME280;69153;47.918;11.428;2023-12-20T02:14:52;95029.47;;;7.18;48.02
79686;BME280;69153;47.918;11.428;2023-12-20T02:17:19;95012.28;;;7.37;47.45
79686;BME280;69153;47.918;11.428;2023-12-20T02:19:45;95009.94;;;7.42;47.68
79686;BME280;69153;47.918;11.428;2023-12-20T02:22:11;95019.34;;;7.16;47.12
79686;BME280;69153;47.918;11.428;2023-12-20T02:24:37;95013.91;;;7.27;47.24
79686;BME280;69153;47.918;11.428;2023-12-20T02:27:03;95021.78;;;7.54;47.00
79686;BME280;69153;47.918;11.428;2023-12-20T02:29:30;95018.13;;;7.48;47.20
79686;BME280;69153;47.918;11.428;2023-12-20T02:31:56;95011.25;;;7.54;46.95
79686;BME280;69153;47.918;11.428;2023-12-20T02:34:21;95007.63;;;7.44;47.34
79686;BME280;69153;47.918;11.428;2023-12-20T02:36:47;94996.56;;;7.30;47.72
79686;BME280;69153;47.918;11.428;2023-12-20T02:39:12;95002.09;;;7.39;47.41
79686;BME280;69153;47.918;11.428;2023-12-20T02:41:38;94986.88;;;7.23;47.78
79686;BME280;69153;47.918;11.428;2023-12-20T02:44:03;94991.69;;;7.01;48.42
79686;BME280;69153;47.918;11.428;2023-12-20T02:46:29;94987.38;;;7.14;48.50
79686;BME280;69153;47.918;11.428;2023-12-20T02:48:54;94993.94;;;7.03;48.69
79686;BME280;69153;47.918;11.428;2023-12-20T02:51:20;94982.84;;;7.15;48.51
79686;BME280;69153;47.918;11.428;2023-12-20T02:53:45;94977.88;;;6.94;49.46
79686;BME280;69153;47.918;11.428;2023-12-20T02:56:11;94977.72;;;6.77;49.87
79686;BME280;69153;47.918;11.428;2023-12-20T02:58:36;94981.50;;;6.76;49.70
79686;BME280;69153;47.918;11.428;2023-12-20T03:01:02;94977.88;;;6.94;49.32
79686;BME280;69153;47.918;11.428;2023-12-20T03:03:27;94964.56;;;7.04;49.18
79686;BME280;69153;47.918;11.428;2023-12-20T03:05:53;94966.75;;;7.09;48.61
79686;BME280;69153;47.918;11.428;2023-12-20T03:08:18;94978.69;;;7.17;48.72
79686;BME280;69153;47.918;11.428;2023-12-20T03:10:44;94966.59;;;7.20;48.07
79686;BME280;69153;47.918;11.428;2023-12-20T03:13:09;94967.91;;;7.08;48.80
79686;BME280;69153;47.918;11.428;2023-12-20T03:15:35;94973.25;;;7.01;49.32
79686;BME280;69153;47.918;11.428;2023-12-20T03:18:00;94965.34;;;7.01;49.18
79686;BME280;69153;47.918;11.428;2023-12-20T03:20:26;94973.81;;;7.16;49.13
79686;BME280;69153;47.918;11.428;2023-12-20T03:22:51;94976.59;;;7.56;48.05
79686;BME280;69153;47.918;11.428;2023-12-20T03:25:17;94982.63;;;7.29;48.27
79686;BME280;69153;47.918;11.428;2023-12-20T03:27:42;94972.69;;;7.40;48.71
79686;BME280;69153;47.918;11.428;2023-12-20T03:30:08;94981.50;;;7.30;49.23
79686;BME280;69153;47.918;11.428;2023-12-20T03:32:34;94980.66;;;7.37;48.91
79686;BME280;69153;47.918;11.428;2023-12-20T03:34:59;94984.16;;;7.53;48.42
79686;BME280;69153;47.918;11.428;2023-12-20T03:37:25;94976.13;;;7.61;48.22
79686;BME280;69153;47.918;11.428;2023-12-20T03:39:50;94993.63;;;7.51;48.94
79686;BME280;69153;47.918;11.428;2023-12-20T03:42:16;94984.66;;;7.45;49.69
79686;BME280;69153;47.918;11.428;2023-12-20T03:44:41;94995.59;;;7.43;50.31
79686;BME280;69153;47.918;11.428;2023-12-20T03:47:07;95005.75;;;7.45;50.85
79686;BME280;69153;47.918;11.428;2023-12-20T03:49:32;95004.25;;;7.44;51.22
79686;BME280;69153;47.918;11.428;2023-12-20T03:51:58;94990.66;;;7.22;51.77
79686;BME280;69153;47.918;11.428;2023-12-20T03:54:24;94997.88;;;7.41;52.05
79686;BME280;69153;47.918;11.428;2023-12-20T03:56:49;94996.69;;;7.46;52.33
79686;BME280;69153;47.918;11.428;2023-12-20T03:59:15;95011.59;;;7.79;51.94
79686;BME280;69153;47.918;11.428;2023-12-20T04:01:44;95001.69;;;7.87;52.05
79686;BME280;69153;47.918;11.428;2023-12-20T04:04:10;95003.41;;;7.97;51.71
79686;BME280;69153;47.918;11.428;2023-12-20T04:06:36;95002.94;;;8.02;53.10
79686;BME280;69153;47.918;11.428;2023-12-20T04:09:01;95016.41;;;7.84;53.94
79686;BME280;69153;47.918;11.428;2023-12-20T04:11:27;95015.84;;;7.97;53.97
79686;BME280;69153;47.918;11.428;2023-12-20T04:13:52;95013.16;;;8.00;54.25
79686;BME280;69153;47.918;11.428;2023-12-20T04:16:18;95017.22;;;8.05;54.74
79686;BME280;69153;47.918;11.428;2023-12-20T04:18:43;95025.09;;;7.85;55.72
79686;BME280;69153;47.918;11.428;2023-12-20T04:21:09;95025.06;;;8.08;55.26
79686;BME280;69153;47.918;11.428;2023-12-20T04:23:34;95024.94;;;7.92;56.04
79686;BME280;69153;47.918;11.428;2023-12-20T04:26:00;95037.34;;;7.72;57.19
79686;BME280;69153;47.918;11.428;2023-12-20T04:28:25;95037.34;;;7.72;57.45
79686;BME280;69153;47.918;11.428;2023-12-20T04:30:50;95039.00;;;7.62;58.06
79686;BME280;69153;47.918;11.428;2023-12-20T04:33:16;95046.28;;;7.54;58.98
79686;BME280;69153;47.918;11.428;2023-12-20T04:35:41;95067.50;;;7.44;59.74
79686;BME280;69153;47.918;11.428;2023-12-20T04:38:08;95043.31;;;7.26;60.47
79686;BME280;69153;47.918;11.428;2023-12-20T04:40:34;95028.84;;;7.37;61.19
79686;BME280;69153;47.918;11.428;2023-12-20T04:42:59;95026.88;;;7.41;61.52
79686;BME280;69153;47.918;11.428;2023-12-20T04:45:25;95028.97;;;7.53;61.65
79686;BME280;69153;47.918;11.428;2023-12-20T04:47:51;95032.03;;;7.52;62.07
79686;BME280;69153;47.918;11.428;2023-12-20T04:50:17;95022.91;;;7.30;63.21
79686;BME280;69153;47.918;11.428;2023-12-20T04:52:42;95039.97;;;7.22;64.17
79686;BME280;69153;47.918;11.428;2023-12-20T04:55:08;95033.84;;;7.28;64.13
79686;BME280;69153;47.918;11.428;2023-12-20T04:57:34;95053.31;;;7.11;65.34
79686;BME280;69153;47.918;11.428;2023-12-20T05:00:00;95041.59;;;6.85;66.00
79686;BME280;69153;47.918;11.428;2023-12-20T05:02:25;95043.09;;;6.86;65.88
79686;BME280;69153;47.918;11.428;2023-12-20T05:04:51;95041.63;;;6.81;66.34
79686;BME280;69153;47.918;11.428;2023-12-20T05:07:16;95047.31;;;6.76;66.28
79686;BME280;69153;47.918;11.428;2023-12-20T05:09:42;95044.28;;;6.78;66.17
79686;BME280;69153;47.918;11.428;2023-12-20T05:12:07;95052.16;;;6.81;65.94
79686;BME280;69153;47.918;11.428;2023-12-20T05:14:33;95066.63;;;7.00;65.58
79686;BME280;69153;47.918;11.428;2023-12-20T05:16:58;95073.88;;;7.20;64.99
79686;BME280;69153;47.918;11.428;2023-12-20T05:19:24;95074.13;;;7.29;64.70
79686;BME280;69153;47.918;11.428;2023-12-20T05:21:50;95078.41;;;7.19;64.95
79686;BME280;69153;47.918;11.428;2023-12-20T05:24:15;95088.66;;;7.13;64.79
79686;BME280;69153;47.918;11.428;2023-12-20T05:26:40;95072.94;;;7.03;65.03
79686;BME280;69153;47.918;11.428;2023-12-20T05:29:06;95089.88;;;7.05;65.03
79686;BME280;69153;47.918;11.428;2023-12-20T05:31:31;95082.69;;;7.36;64.13
79686;BME280;69153;47.918;11.428;2023-12-20T05:33:57;95082.72;;;7.33;63.98
79686;BME280;69153;47.918;11.428;2023-12-20T05:36:23;95096.63;;;7.37;64.26
79686;BME280;69153;47.918;11.428;2023-12-20T05:38:49;95098.59;;;7.56;63.55
79686;BME280;69153;47.918;11.428;2023-12-20T05:41:14;95101.19;;;7.60;63.65
79686;BME280;69153;47.918;11.428;2023-12-20T05:43:39;95100.00;;;7.37;64.70
79686;BME280;69153;47.918;11.428;2023-12-20T05:46:05;95108.88;;;7.20;65.51
79686;BME280;69153;47.918;11.428;2023-12-20T05:48:30;95111.69;;;7.06;66.65
79686;BME280;69153;47.918;11.428;2023-12-20T05:50:56;95116.03;;;7.20;65.83
79686;BME280;69153;47.918;11.428;2023-12-20T05:53:21;95119.84;;;7.15;65.62
79686;BME280;69153;47.918;11.428;2023-12-20T05:55:47;95127.69;;;7.22;65.53
79686;BME280;69153;47.918;11.428;2023-12-20T05:58:12;95128.09;;;7.17;66.00
79686;BME280;69153;47.918;11.428;2023-12-20T06:00:38;95124.66;;;6.90;66.96
79686;BME280;69153;47.918;11.428;2023-12-20T06:03:04;95145.72;;;6.52;67.49
79686;BME280;69153;47.918;11.428;2023-12-20T06:05:30;95143.94;;;6.42;68.09
79686;BME280;69153;47.918;11.428;2023-12-20T06:07:56;95141.34;;;6.38;67.76
79686;BME280;69153;47.918;11.428;2023-12-20T06:10:26;95143.09;;;6.52;67.52
79686;BME280;69153;47.918;11.428;2023-12-20T06:12:52;95151.19;;;6.31;68.25
79686;BME280;69153;47.918;11.428;2023-12-20T06:15:17;95166.53;;;6.39;67.74
79686;BME280;69153;47.918;11.428;2023-12-20T06:17:43;95154.47;;;6.45;67.42
79686;BME280;69153;47.918;11.428;2023-12-20T06:20:09;95148.72;;;6.54;67.37
79686;BME280;69153;47.918;11.428;2023-12-20T06:22:35;95137.16;;;6.44;67.86
79686;BME280;69153;47.918;11.428;2023-12-20T06:25:02;95138.63;;;6.87;66.53
79686;BME280;69153;47.918;11.428;2023-12-20T06:27:28;95148.13;;;6.77;66.80
79686;BME280;69153;47.918;11.428;2023-12-20T06:29:54;95145.94;;;6.72;66.99
79686;BME280;69153;47.918;11.428;2023-12-20T06:32:19;95150.06;;;6.73;66.88
79686;BME280;69153;47.918;11.428;2023-12-20T06:34:45;95159.00;;;6.79;66.37
79686;BME280;69153;47.918;11.428;2023-12-20T06:37:10;95153.31;;;6.47;67.81
79686;BME280;69153;47.918;11.428;2023-12-20T06:39:35;95157.69;;;6.60;67.10
79686;BME280;69153;47.918;11.428;2023-12-20T06:42:01;95164.47;;;6.61;66.89
79686;BME280;69153;47.918;11.428;2023-12-20T06:44:26;95162.13;;;6.67;66.69
79686;BME280;69153;47.918;11.428;2023-12-20T06:46:52;95175.28;;;6.70;66.43
79686;BME280;69153;47.918;11.428;2023-12-20T06:49:17;95187.34;;;6.64;66.42
79686;BME280;69153;47.918;11.428;2023-12-20T06:51:43;95179.94;;;6.52;67.22
79686;BME280;69153;47.918;11.428;2023-12-20T06:54:09;95191.22;;;6.53;66.58
79686;BME280;69153;47.918;11.428;2023-12-20T06:56:34;95195.34;;;6.54;65.91
79686;BME280;69153;47.918;11.428;2023-12-20T06:59:00;95187.16;;;6.44;66.85
79686;BME280;69153;47.918;11.428;2023-12-20T07:01:25;95196.09;;;6.54;66.57
79686;BME280;69153;47.918;11.428;2023-12-20T07:03:50;95202.13;;;6.55;65.95
79686;BME280;69153;47.918;11.428;2023-12-20T07:06:16;95202.22;;;6.40;66.11
79686;BME280;69153;47.918;11.428;2023-12-20T07:08:42;95212.19;;;6.63;66.10
79686;BME280;69153;47.918;11.428;2023-12-20T07:11:07;95202.97;;;6.44;65.97
79686;BME280;69153;47.918;11.428;2023-12-20T07:13:33;95220.81;;;6.67;65.51
79686;BME280;69153;47.918;11.428;2023-12-20T07:15:59;95211.78;;;6.65;65.38
79686;BME280;69153;47.918;11.428;2023-12-20T07:18:24;95205.16;;;6.50;65.37
79686;BME280;69153;47.918;11.428;2023-12-20T07:20:50;95202.97;;;6.44;65.86
79686;BME280;69153;47.918;11.428;2023-12-20T07:23:15;95202.72;;;6.25;66.62
79686;BME280;69153;47.918;11.428;2023-12-20T07:25:40;95215.38;;;6.44;66.55
79686;BME280;69153;47.918;11.428;2023-12-20T07:28:06;95220.19;;;6.53;65.88
79686;BME280;69153;47.918;11.428;2023-12-20T07:30:31;95229.09;;;6.18;67.33
79686;BME280;69153;47.918;11.428;2023-12-20T07:32:57;95228.34;;;6.14;66.03
79686;BME280;69153;47.918;11.428;2023-12-20T07:35:25;95225.03;;;6.06;66.82
79686;BME280;69153;47.918;11.428;2023-12-20T07:37:50;95215.59;;;6.12;67.03
79686;BME280;69153;47.918;11.428;2023-12-20T07:40:16;95217.25;;;5.88;67.50
79686;BME280;69153;47.918;11.428;2023-12-20T07:42:44;95224.34;;;5.88;67.99
79686;BME280;69153;47.918;11.428;2023-12-20T07:45:10;95238.69;;;5.80;68.60
79686;BME280;69153;47.918;11.428;2023-12-20T07:47:36;95243.81;;;6.08;67.52
79686;BME280;69153;47.918;11.428;2023-12-20T07:50:02;95243.47;;;5.99;67.15
79686;BME280;69153;47.918;11.428;2023-12-20T07:52:29;95246.44;;;6.08;67.21
79686;BME280;69153;47.918;11.428;2023-12-20T07:54:54;95244.50;;;6.19;66.59
79686;BME280;69153;47.918;11.428;2023-12-20T07:57:20;95235.59;;;5.99;67.20
79686;BME280;69153;47.918;11.428;2023-12-20T07:59:46;95241.88;;;6.16;66.49
79686;BME280;69153;47.918;11.428;2023-12-20T08:02:11;95252.03;;;6.17;66.25
79686;BME280;69153;47.918;11.428;2023-12-20T08:04:37;95229.19;;;6.00;65.93
79686;BME280;69153;47.918;11.428;2023-12-20T08:07:03;95240.84;;;6.02;66.13
79686;BME280;69153;47.918;11.428;2023-12-20T08:09:28;95241.56;;;6.10;65.87
79686;BME280;69153;47.918;11.428;2023-12-20T08:11:54;95241.94;;;6.08;65.85
79686;BME280;69153;47.918;11.428;2023-12-20T08:14:19;95247.88;;;6.16;65.72
79686;BME280;69153;47.918;11.428;2023-12-20T08:16:45;95256.81;;;6.33;64.89
79686;BME280;69153;47.918;11.428;2023-12-20T08:19:10;95263.50;;;6.41;64.52
79686;BME280;69153;47.918;11.428;2023-12-20T08:21:36;95264.59;;;6.47;64.60
79686;BME280;69153;47.918;11.428;2023-12-20T08:24:01;95258.47;;;6.61;64.19
79686;BME280;69153;47.918;11.428;2023-12-20T08:26:27;95267.84;;;6.65;63.74
79686;BME280;69153;47.918;11.428;2023-12-20T08:28:52;95276.50;;;6.62;64.19
79686;BME280;69153;47.918;11.428;2023-12-20T08:31:18;95274.13;;;6.78;63.63
79686;BME280;69153;47.918;11.428;2023-12-20T08:33:45;95284.22;;;6.87;63.32
79686;BME280;69153;47.918;11.428;2023-12-20T08:36:12;95276.66;;;6.89;63.33
79686;BME280;69153;47.918;11.428;2023-12-20T08:38:37;95282.09;;;6.71;64.58
79686;BME280;69153;47.918;11.428;2023-12-20T08:41:03;95291.16;;;6.63;64.58
79686;BME280;69153;47.918;11.428;2023-12-20T08:43:31;95292.28;;;6.62;64.43
79686;BME280;69153;47.918;11.428;2023-12-20T08:45:56;95281.16;;;6.44;64.96
79686;BME280;69153;47.918;11.428;2023-12-20T08:48:22;95284.47;;;6.55;64.73
79686;BME280;69153;47.918;11.428;2023-12-20T08:50:47;95285.00;;;6.80;63.78
79686;BME280;69153;47.918;11.428;2023-12-20T08:53:15;95289.16;;;6.78;63.85
79686;BME280;69153;47.918;11.428;2023-12-20T08:55:41;95284.66;;;6.78;64.14
79686;BME280;69153;47.918;11.428;2023-12-20T08:58:07;95280.97;;;6.69;64.44
79686;BME280;69153;47.918;11.428;2023-12-20T09:00:34;95289.97;;;6.71;64.59
79686;BME280;69153;47.918;11.428;2023-12-20T09:02:59;95284.91;;;6.91;63.77
79686;BME280;69153;47.918;11.428;2023-12-20T09:05:25;95286.63;;;7.12;63.33
79686;BME280;69153;47.918;11.428;2023-12-20T09:07:50;95287.00;;;6.69;64.51
79686;BME280;69153;47.918;11.428;2023-12-20T09:10:16;95276.97;;;6.50;65.01
79686;BME280;69153;47.918;11.428;2023-12-20T09:12:41;95276.19;;;6.53;64.94
79686;BME280;69153;47.918;11.428;2023-12-20T09:15:08;95279.28;;;6.41;65.23
79686;BME280;69153;47.918;11.428;2023-12-20T09:17:33;95285.97;;;6.56;65.70
79686;BME280;69153;47.918;11.428;2023-12-20T09:19:59;95281.81;;;6.55;65.37
79686;BME280;69153;47.918;11.428;2023-12-20T09:22:25;95283.72;;;6.51;65.36
79686;BME280;69153;47.918;11.428;2023-12-20T09:24:50;95275.91;;;6.40;65.83
79686;BME280;69153;47.918;11.428;2023-12-20T09:27:16;95281.06;;;6.55;65.47
79686;BME280;69153;47.918;11.428;2023-12-20T09:29:41;95275.53;;;6.90;64.45
79686;BME280;69153;47.918;11.428;2023-12-20T09:32:07;95278.19;;;6.87;64.22
79686;BME280;69153;47.918;11.428;2023-12-20T09:34:33;95276.81;;;6.75;64.27
79686;BME280;69153;47.918;11.428;2023-12-20T09:36:58;95277.13;;;6.80;64.85
79686;BME280;69153;47.918;11.428;2023-12-20T09:39:24;95274.44;;;6.88;64.16
79686;BME280;69153;47.918;11.428;2023-12-20T09:42:04;95277.66;;;7.02;63.68
79686;BME280;69153;47.918;11.428;2023-12-20T09:44:30;95279.13;;;7.07;63.91
79686;BME280;69153;47.918;11.428;2023-12-20T09:46:57;95277.34;;;6.97;64.13
79686;BME280;69153;47.918;11.428;2023-12-20T09:49:23;95277.25;;;7.07;64.13
79686;BME280;69153;47.918;11.428;2023-12-20T09:51:50;95270.75;;;7.19;63.25
79686;BME280;69153;47.918;11.428;2023-12-20T09:54:18;95272.47;;;7.36;62.94
79686;BME280;69153;47.918;11.428;2023-12-20T09:56:44;95273.50;;;7.42;62.83
79686;BME280;69153;47.918;11.428;2023-12-20T09:59:09;95274.16;;;7.16;63.07
79686;BME280;69153;47.918;11.428;2023-12-20T10:01:35;95269.06;;;6.98;64.31
79686;BME280;69153;47.918;11.428;2023-12-20T10:04:06;95262.59;;;7.03;63.81
79686;BME280;69153;47.918;11.428;2023-12-20T10:06:37;95262.75;;;6.89;63.85
79686;BME280;69153;47.918;11.428;2023-12-20T10:09:03;95259.31;;;6.95;64.23
79686;BME280;69153;47.918;11.428;2023-12-20T10:11:29;95258.09;;;7.03;63.44
79686;BME280;69153;47.918;11.428;2023-12-20T10:14:01;95250.25;;;7.34;62.67
79686;BME280;69153;47.918;11.428;2023-12-20T10:16:27;95248.34;;;7.00;63.36
79686;BME280;69153;47.918;11.428;2023-12-20T10:18:54;95246.41;;;7.04;63.79
79686;BME280;69153;47.918;11.428;2023-12-20T10:21:20;95243.25;;;7.20;63.16
79686;BME280;69153;47.918;11.428;2023-12-20T10:23:45;95236.25;;;7.40;62.83
79686;BME280;69153;47.918;11.428;2023-12-20T10:26:19;95230.94;;;7.44;63.26
79686;BME280;69153;47.918;11.428;2023-12-20T10:28:45;95229.22;;;7.64;61.80
79686;BME280;69153;47.918;11.428;2023-12-20T10:31:26;95230.47;;;7.52;62.26
79686;BME280;69153;47.918;11.428;2023-12-20T10:33:52;95238.91;;;7.71;61.81
79686;BME280;69153;47.918;11.428;2023-12-20T10:36:17;95219.81;;;7.90;61.58
79686;BME280;69153;47.918;11.428;2023-12-20T10:38:44;95234.63;;;7.80;61.73
79686;BME280;69153;47.918;11.428;2023-12-20T10:41:10;95230.53;;;8.33;60.58
79686;BME280;69153;47.918;11.428;2023-12-20T10:43:37;95226.88;;;8.74;59.09
79686;BME280;69153;47.918;11.428;2023-12-20T10:46:04;95207.81;;;8.63;59.89
79686;BME280;69153;47.918;11.428;2023-12-20T10:48:31;95217.25;;;8.40;60.21
79686;BME280;69153;47.918;11.428;2023-12-20T10:50:58;95223.81;;;8.29;61.53
79686;BME280;69153;47.918;11.428;2023-12-20T10:53:25;95217.13;;;8.20;60.95
79686;BME280;69153;47.918;11.428;2023-12-20T10:55:52;95212.09;;;8.30;60.99
79686;BME280;69153;47.918;11.428;2023-12-20T10:58:22;95224.06;;;8.38;60.61
79686;BME280;69153;47.918;11.428;2023-12-20T11:01:00;95206.63;;;8.44;60.43
79686;BME280;69153;47.918;11.428;2023-12-20T11:03:32;95201.34;;;8.44;60.35
79686;BME280;69153;47.918;11.428;2023-12-20T11:06:26;95204.34;;;8.89;59.65
79686;BME280;69153;47.918;11.428;2023-12-20T11:09:13;95205.00;;;8.00;61.47
79686;BME280;69153;47.918;11.428;2023-12-20T11:14:40;95187.84;;;8.11;61.92
79686;BME280;69153;47.918;11.428;2023-12-20T11:17:10;95196.34;;;8.22;61.21
79686;BME280;69153;47.918;11.428;2023-12-20T11:22:21;95197.31;;;8.82;58.99
79686;BME280;69153;47.918;11.428;2023-12-20T11:24:48;95195.56;;;8.52;59.63
79686;BME280;69153;47.918;11.428;2023-12-20T11:27:14;95196.78;;;8.44;60.51
79686;BME280;69153;47.918;11.428;2023-12-20T11:29:41;95200.94;;;8.45;60.02
79686;BME280;69153;47.918;11.428;2023-12-20T11:37:36;95201.69;;;8.19;60.55
79686;BME280;69153;47.918;11.428;2023-12-20T11:40:05;95199.31;;;8.28;60.67
79686;BME280;69153;47.918;11.428;2023-12-20T11:42:33;95186.28;;;8.17;60.53
79686;BME280;69153;47.918;11.428;2023-12-20T11:44:59;95185.44;;;8.47;59.97
79686;BME280;69153;47.918;11.428;2023-12-20T11:47:30;95187.31;;;8.47;59.36
79686;BME280;69153;47.918;11.428;2023-12-20T11:49:56;95186.34;;;8.37;59.66
79686;BME280;69153;47.918;11.428;2023-12-20T11:52:22;95185.16;;;8.42;60.02
79686;BME280;69153;47.918;11.428;2023-12-20T11:54:47;95181.97;;;8.27;59.99
79686;BME280;69153;47.918;11.428;2023-12-20T11:57:13;95194.75;;;7.78;61.45
79686;BME280;69153;47.918;11.428;2023-12-20T11:59:39;95195.38;;;7.86;61.63
79686;BME280;69153;47.918;11.428;2023-12-20T12:02:04;95197.97;;;7.89;61.84
79686;BME280;69153;47.918;11.428;2023-12-20T12:04:30;95195.06;;;8.07;61.53
79686;BME280;69153;47.918;11.428;2023-12-20T12:06:56;95183.97;;;7.93;61.71
79686;BME280;69153;47.918;11.428;2023-12-20T12:09:21;95185.53;;;7.90;62.39
79686;BME280;69153;47.918;11.428;2023-12-20T12:11:47;95179.94;;;8.11;61.77
79686;BME280;69153;47.918;11.428;2023-12-20T12:14:13;95173.59;;;8.32;61.85
79686;BME280;69153;47.918;11.428;2023-12-20T12:16:39;95184.34;;;8.45;61.49
79686;BME280;69153;47.918;11.428;2023-12-20T12:19:04;95178.22;;;8.24;60.95
79686;BME280;69153;47.918;11.428;2023-12-20T12:21:29;95175.47;;;8.08;62.37
79686;BME280;69153;47.918;11.428;2023-12-20T12:24:06;95177.94;;;7.92;61.74
79686;BME280;69153;47.918;11.428;2023-12-20T12:26:32;95176.47;;;7.91;62.32
79686;BME280;69153;47.918;11.428;2023-12-20T12:28:57;95173.53;;;7.85;62.35
79686;BME280;69153;47.918;11.428;2023-12-20T12:31:23;95173.09;;;7.64;62.86
79686;BME280;69153;47.918;11.428;2023-12-20T12:33:50;95172.75;;;7.88;61.78
79686;BME280;69153;47.918;11.428;2023-12-20T12:36:16;95172.78;;;7.85;62.02
79686;BME280;69153;47.918;11.428;2023-12-20T12:38:42;95166.72;;;7.61;62.42
79686;BME280;69153;47.918;11.428;2023-12-20T12:41:08;95168.69;;;7.80;62.33
79686;BME280;69153;47.918;11.428;2023-12-20T12:43:35;95164.56;;;7.79;62.37
79686;BME280;69153;47.918;11.428;2023-12-20T12:46:00;95171.94;;;7.92;61.81
79686;BME280;69153;47.918;11.428;2023-12-20T12:48:26;95155.44;;;8.11;61.48
79686;BME280;69153;47.918;11.428;2023-12-20T12:50:53;95153.19;;;7.86;61.96
79686;BME280;69153;47.918;11.428;2023-12-20T12:53:19;95149.50;;;7.80;62.11
79686;BME280;69153;47.918;11.428;2023-12-20T12:55:45;95154.41;;;7.51;62.89
79686;BME280;69153;47.918;11.428;2023-12-20T12:58:11;95154.16;;;7.42;63.07
79686;BME280;69153;47.918;11.428;2023-12-20T13:00:37;95153.28;;;7.79;62.34
79686;BME280;69153;47.918;11.428;2023-12-20T13:03:02;95154.53;;;7.71;61.87
79686;BME280;69153;47.918;11.428;2023-12-20T13:05:29;95154.59;;;7.37;62.66